Aktualne dane pomiarowe

Uwaga, wersja testowa! Automatyczne pobieranie danych za pomocą narzędzi lub skryptów to umożliwiających jest zabronione.

Dane meteo z obszaru Polski uzyskane na podstawie depesz SYNOP pobieranych co godzinę z NWS. Najedź myszką na symbol przedstawiony w tabeli, aby uzyskać informacje co do jego znaczenia. Prosimy pamiętać, że to testowa wersja strony, która jeszcze nie jest ukończona. Stworzono również jest krótki FAQ dotyczący korzystania z tej podstrony Anomalie temperatury w chwili obecnej odniesione są do okresu referencyjnego 1951-2016. Okres ten będzie później zmieniony na 1981-2010. Kliknij ikonę aby pobrać plik CSV. Kliknij ikonę aby wygenerować mapę synoptyczną dla danego terminu.

Wybierz Datę:    

        

Bielsko-Biała (12600)

Dane terminowe dla wybranej stacji. Kliknij datę, aby otrzymać dane z tego terminu dla wszystkich stacji.

TemperaturaZachmurzenieWiatrCiśnienieOpadyPogoda
 Data t td wb tx tn tg rh  Nt Nl Cl Cm Ch ws wd g1 g2 wx mslp ppp ch 24h 12h t ww ww w1 w2  
2019-08-09 23:00:00 16.7 11.2 13.2--- 7030.0wx-wx2wx--21014.6 967.9 -0.4----22----
2019-08-09 22:00:00 18.0 11.5 13.9--- 6630.0wx-wxwx4wx--41014.6 968.1 0.0----22----
2019-08-09 21:00:00 16.9 11.8 13.6--- 7230.0wx-wx3wx---1015.1 968.4 0.7---------
2019-08-09 20:00:00 18.7 11.3 14.1--- 6230.0wx-wx2wx--21014.7 968.3 0.5---------
2019-08-09 19:00:00 20.0 11.5 14.8--- 5830.0wx-wx3wx--31014.3 968.1 0.4---------
2019-08-09 18:00:00 21.4 12.3 15.8 27.0 19.8- 5650.0wx-wx2wx--21013.6 967.7 0.1- 0.012------
2019-08-09 17:00:00 24.0 12.3 16.8--- 4850.0wxwxwxwx3wx---1013.3 967.8 -0.1---------
2019-08-09 16:00:00 25.3 10.7 16.6--- 4050.0wxwxwxwxwx4wx---1013.0 967.7 -0.3---------
2019-08-09 15:00:00 26.1 9.4 16.4--- 3550.0wxwxwxwx5wx--51012.8 967.6 -0.7---------
2019-08-09 14:00:00 26.8 10.5 17.1--- 3650.0wxwxwxwx3wx--31013.0 967.9 -0.5---------
2019-08-09 13:00:00 26.6 11.1 17.3--- 3850.0wxwxwxwx2wx--21013.1 968.0 -0.7---------
2019-08-09 12:00:00 25.8 10.4 16.7--- 3850.0wxwxwxwx2wx--21013.6 968.3 -0.7- 0.06------
2019-08-09 11:00:00 25.2 9.9 16.2--- 3840.0wxwxwxwx3wx---1013.8 968.4 -0.4---------
2019-08-09 10:00:00 24.9 11.5 16.8--- 4340.0wxwxwxwx4wx--41014.1 968.7 -0.1---------
2019-08-09 09:00:00 24.1 11.8 16.6--- 4640.0wxwxwxwx4wx--41014.6 969.0 0.1---------
2019-08-09 08:00:00 23.0 12.9 16.7--- 5340.0wxwxwxwx3wx--31014.5 968.8 0.0----22----
2019-08-09 07:00:00 22.3 12.0 16.0--- 5240.0wxwxwxwx2wx--21014.6 968.8 0.5----22----
2019-08-09 06:00:00 19.8 14.2 16.1 20.1 14.2 13 7040.0wxwxwxwx1wx--11015.1 968.9 0.7- 0.012-22--- 7.9
2019-08-09 05:00:00 16.9 13.4 14.5--- 8030.0wxwxwxwx1wx--11015.5 968.8 0.7----22----
2019-08-09 04:00:00 14.7 12.4 13.1--- 8625.0wxwxwxwx2wx--21015.3 968.3 0.4----22----
2019-08-09 03:00:00 14.8 12.1 13.0--- 8430.0wx-wx2wx--21015.2 968.2 0.3----22----
2019-08-09 02:00:00 14.5 12.0 12.8--- 8530.0wx-1wx--11015.2 968.1 0.1----22----
2019-08-09 01:00:00 16.0 12.2 13.5--- 7840.0wx-2wx---1014.7 967.9 0.0---------
2019-08-09 00:00:00 16.1 12.6 13.8--- 8030.0wx-wx2wx--21014.7 967.9 0.4- 0.06-22----
2019-08-08 23:00:00 16.2 12.2 13.6--- 7730.0wx-wx2wx--21014.8 968.0 0.6----22----
2019-08-08 22:00:00 17.3 11.8 13.8--- 7040.0wx-wx1wx--11014.5 967.9 0.5----22----
2019-08-08 21:00:00 18.3 11.6 14.1--- 6540.0wx-wx1wx--11013.9 967.5 0.4----22----
2019-08-08 20:00:00 18.8 11.4 14.2--- 6230.0wx-wx3wx---1013.7 967.4 0.7---------
2019-08-08 19:00:00 18.6 11.9 14.4--- 6540.0wx-wxwx3wx--31013.8 967.4 0.6---------
2019-08-08 18:00:00 20.1 13.8 16.0 24.2 17.6- 6740.0wxwxwxwxwx3wx--31013.2 967.1 0.1- 0.012------
2019-08-08 17:00:00 22.7 14.3 17.3--- 5930.0wxwxwxwx3wx--31012.4 966.7 -0.3---------
2019-08-08 16:00:00 23.7 13.3 17.2--- 5230.0wxwxwxwx2wx---1012.3 966.8 -0.6---------
2019-08-08 15:00:00 23.7 12.3 16.7--- 4940.0wxwxwxwxwx3wx--31012.5 967.0 -0.2---------
2019-08-08 14:00:00 23.8 11.5 16.4--- 4630.0wxwxwxwxwx2wx--21012.5 967.0 -0.3---------
2019-08-08 13:00:00 23.6 12.3 16.7--- 4930.0wxwxwxwx2wx--21013.0 967.4 0.4---------
2019-08-08 12:00:00 23.2 12.5 16.6--- 5130.0wxwxwxwx2wx--21012.8 967.2 0.4- 0.06------
2019-08-08 11:00:00 22.1 12.6 16.2--- 5530.0wxwxwxwx3wx--31013.1 967.3 0.7---------
2019-08-08 10:00:00 21.4 14.1 16.7--- 6320.0wxwxwxwx3wx--31012.9 967.0 0.8---------
2019-08-08 09:00:00 20.5 14.6 16.6--- 6920.0wxwxwx4wx--41012.8 966.8 1.3---------
2019-08-08 08:00:00 19.5 14.9 16.4--- 7520.0wxwxwx4wx--41012.8 966.6 1.6---------
2019-08-08 07:00:00 18.3 15.9 16.6--- 8620.0wxwxwx5wx--51012.5 966.2 1.8---------
2019-08-08 06:00:00 17.6 15.6 16.2 23.2 16.4 16 8830.0wxwxwx3wx--31011.9 965.5 1.6 14.3 14.012wx-w1- 8.4
2019-08-08 05:00:00 17.4 15.7 16.2--- 9030.0wxwxwxwx5wx---1011.4 965.0 1.8---------
2019-08-08 04:00:00 16.4 15.6 15.8--- 9530.0wxwxwxwxwx3wx---1011.0 964.4 1.3---wx-w1--
2019-08-08 03:00:00 16.8 15.8 16.1--- 944.0wxwxwx6wx--61010.4 963.9 1.7---wx-w1--
2019-08-08 02:00:00 17.4 16.6 16.8--- 9515.0wxwxwx5wx--51009.5 963.2 0.7---------
2019-08-08 01:00:00 17.5 16.7 16.9--- 9540.0wxwxwx3wx--31009.4 963.1 0.6---wx---
2019-08-08 00:00:00 17.4 16.6 16.8--- 956.0wxwxwx1wx--11008.5 962.2 0.7- 11.06wx---
2.6 ms

 

Print Friendly, PDF & Email